createdAt,value
2022-11-24T00:00:51.462Z,24.38
2022-11-24T00:03:18.481Z,22.42
2022-11-24T00:05:45.258Z,23.95
2022-11-24T00:08:12.363Z,22.52
2022-11-24T00:10:39.162Z,24.45
2022-11-24T00:13:05.861Z,25.23
2022-11-24T00:15:32.547Z,23.80
2022-11-24T00:17:59.198Z,24.23
2022-11-24T00:20:25.868Z,24.05
2022-11-24T00:22:52.533Z,24.38
2022-11-24T00:25:19.174Z,23.48
2022-11-24T00:27:48.825Z,24.00
2022-11-24T00:30:15.727Z,24.95
2022-11-24T00:32:42.451Z,25.02
2022-11-24T00:35:09.444Z,25.42
2022-11-24T00:37:36.277Z,24.63
2022-11-24T00:40:03.070Z,25.67
2022-11-24T00:42:29.730Z,24.17
2022-11-24T00:44:56.393Z,23.75
2022-11-24T00:47:23.107Z,24.98
2022-11-24T00:49:49.820Z,24.17
2022-11-24T00:52:16.739Z,24.88
2022-11-24T00:54:43.359Z,24.35
2022-11-24T00:57:10.117Z,23.48
2022-11-24T00:59:36.769Z,25.48
2022-11-24T01:02:03.580Z,24.25
2022-11-24T01:04:30.290Z,25.05
2022-11-24T01:06:56.965Z,24.15
2022-11-24T01:09:23.838Z,24.48
2022-11-24T01:12:02.758Z,24.33
2022-11-24T01:14:30.676Z,24.27
2022-11-24T01:16:57.378Z,24.35
2022-11-24T01:19:24.366Z,23.98
2022-11-24T01:21:51.090Z,23.15
2022-11-24T01:24:18.189Z,24.52
2022-11-24T01:26:44.915Z,25.00
2022-11-24T01:29:12.486Z,23.58
2022-11-24T01:31:39.297Z,24.33
2022-11-24T01:34:06.435Z,25.85
2022-11-24T01:36:33.833Z,23.58
2022-11-24T01:39:00.479Z,24.00
2022-11-24T01:41:27.430Z,26.25
2022-11-24T01:43:57.656Z,23.55
2022-11-24T01:46:32.043Z,23.63
2022-11-24T01:49:20.923Z,25.08
2022-11-24T01:51:51.152Z,24.27
2022-11-24T01:54:23.731Z,24.83
2022-11-24T01:56:53.724Z,24.30
2022-11-24T01:59:23.872Z,24.10
2022-11-24T02:01:51.690Z,24.33
2022-11-24T02:04:24.095Z,22.88
2022-11-24T02:06:52.041Z,22.30
2022-11-24T02:09:32.953Z,22.42
2022-11-24T02:12:01.154Z,21.70
2022-11-24T02:14:27.961Z,23.13
2022-11-24T02:16:54.699Z,24.23
2022-11-24T02:19:40.264Z,21.95
2022-11-24T02:22:22.316Z,24.23
2022-11-24T02:25:15.224Z,22.75
2022-11-24T02:27:44.701Z,23.98
2022-11-24T02:30:15.198Z,22.75
2022-11-24T02:32:42.319Z,24.23
2022-11-24T02:35:13.907Z,22.80
2022-11-24T02:37:40.623Z,22.63
2022-11-24T02:40:08.233Z,23.17
2022-11-24T02:42:40.093Z,23.35
2022-11-24T02:45:07.451Z,23.58
2022-11-24T02:47:34.165Z,21.38
2022-11-24T02:50:04.251Z,22.40
2022-11-24T02:52:30.915Z,22.35
2022-11-24T02:54:57.597Z,22.15
2022-11-24T02:57:27.331Z,22.08
2022-11-24T02:59:54.080Z,22.83
2022-11-24T03:02:20.976Z,23.73
2022-11-24T03:04:47.609Z,23.38
2022-11-24T03:07:14.814Z,22.25
2022-11-24T03:09:41.577Z,22.42
2022-11-24T03:12:08.388Z,23.65
2022-11-24T03:14:35.370Z,23.52
2022-11-24T03:17:02.533Z,23.80
2022-11-24T03:19:29.212Z,21.52
2022-11-24T03:21:55.990Z,22.75
2022-11-24T03:24:22.673Z,22.85
2022-11-24T03:26:49.321Z,22.65
2022-11-24T03:29:18.399Z,22.85
2022-11-24T03:31:45.428Z,22.58
2022-11-24T03:34:12.100Z,23.00
2022-11-24T03:36:38.855Z,22.67
2022-11-24T03:39:05.706Z,22.98
2022-11-24T03:41:32.593Z,21.40
2022-11-24T03:43:59.308Z,22.48
2022-11-24T03:46:26.124Z,22.27
2022-11-24T03:48:52.840Z,22.00
2022-11-24T03:51:19.566Z,20.52
2022-11-24T03:53:46.327Z,22.38
2022-11-24T03:56:14.349Z,22.23
2022-11-24T03:58:41.121Z,21.83
2022-11-24T04:01:07.764Z,21.98
2022-11-24T04:03:34.403Z,22.10
2022-11-24T04:06:01.078Z,21.67
2022-11-24T04:08:27.880Z,22.42
2022-11-24T04:10:54.920Z,21.08
2022-11-24T04:13:23.605Z,21.80
2022-11-24T04:15:50.600Z,21.70
2022-11-24T04:18:17.370Z,22.15
2022-11-24T04:20:44.440Z,21.88
2022-11-24T04:23:11.382Z,23.20
2022-11-24T04:25:38.636Z,24.33
2022-11-24T04:28:05.464Z,23.55
2022-11-24T04:30:32.146Z,23.13
2022-11-24T04:32:59.084Z,24.35
2022-11-24T04:35:25.706Z,23.02
2022-11-24T04:37:52.666Z,23.80
2022-11-24T04:40:20.116Z,25.17
2022-11-24T04:42:55.388Z,24.08
2022-11-24T04:45:23.057Z,26.08
2022-11-24T04:47:49.839Z,24.55
2022-11-24T04:50:16.839Z,24.15
2022-11-24T04:52:44.027Z,24.42
2022-11-24T04:55:11.128Z,22.88
2022-11-24T04:57:38.295Z,25.73
2022-11-24T05:00:05.562Z,24.02
2022-11-24T05:02:32.292Z,24.27
2022-11-24T05:04:58.979Z,23.88
2022-11-24T05:07:25.685Z,23.65
2022-11-24T05:10:11.014Z,22.33
2022-11-24T05:12:37.619Z,22.75
2022-11-24T05:15:05.789Z,22.45
2022-11-24T05:17:36.389Z,24.58
2022-11-24T05:20:04.528Z,23.60
2022-11-24T05:22:31.857Z,23.35
2022-11-24T05:24:58.544Z,22.98
2022-11-24T05:27:25.333Z,23.30
2022-11-24T05:29:52.006Z,22.92
2022-11-24T05:32:18.724Z,21.88
2022-11-24T05:34:45.513Z,20.42
2022-11-24T05:37:12.135Z,22.08
2022-11-24T05:39:38.828Z,20.10
2022-11-24T05:42:25.854Z,22.10
2022-11-24T05:44:53.491Z,21.45
2022-11-24T05:47:20.709Z,21.35
2022-11-24T05:49:47.695Z,22.02
2022-11-24T05:52:14.388Z,22.35
2022-11-24T05:54:41.078Z,22.38
2022-11-24T05:57:07.879Z,22.25
2022-11-24T05:59:34.574Z,21.88
2022-11-24T06:02:01.328Z,21.05
2022-11-24T06:04:28.195Z,21.48
2022-11-24T06:06:54.896Z,21.27
2022-11-24T06:09:21.647Z,20.98
2022-11-24T06:11:48.600Z,21.73
2022-11-24T06:14:15.265Z,20.48
2022-11-24T06:16:42.307Z,20.88
2022-11-24T06:19:10.396Z,20.23
2022-11-24T06:21:37.087Z,20.70
2022-11-24T06:24:04.271Z,20.00
2022-11-24T06:26:31.028Z,20.20
2022-11-24T06:29:01.412Z,20.45
2022-11-24T06:31:28.203Z,19.95
2022-11-24T06:33:54.943Z,20.10
2022-11-24T06:36:21.689Z,20.77
2022-11-24T06:38:48.350Z,20.27
2022-11-24T06:41:16.151Z,21.05
2022-11-24T06:43:46.436Z,19.80
2022-11-24T06:46:13.591Z,20.33
2022-11-24T06:48:40.273Z,19.15
2022-11-24T06:51:08.979Z,19.15
2022-11-24T06:53:38.290Z,18.48
2022-11-24T06:56:15.736Z,19.17
2022-11-24T06:58:48.387Z,18.88
2022-11-24T07:01:18.061Z,19.45
2022-11-24T07:03:44.960Z,19.95
2022-11-24T07:06:11.842Z,19.65
2022-11-24T07:08:38.596Z,20.35
2022-11-24T07:11:07.391Z,18.90
2022-11-24T07:13:34.103Z,18.45
2022-11-24T07:16:09.664Z,19.92
2022-11-24T07:18:36.358Z,18.73
2022-11-24T07:21:06.195Z,19.35
2022-11-24T07:23:32.849Z,20.27
2022-11-24T07:26:05.267Z,19.92
2022-11-24T07:28:33.831Z,19.80
2022-11-24T07:31:05.697Z,19.52
2022-11-24T07:33:32.554Z,20.33
2022-11-24T07:36:03.456Z,21.40
2022-11-24T07:38:31.732Z,19.63
2022-11-24T07:41:02.359Z,20.35
2022-11-24T07:43:30.539Z,19.73
2022-11-24T07:45:57.633Z,19.55
2022-11-24T07:48:24.546Z,20.83
2022-11-24T07:50:55.438Z,20.45
2022-11-24T07:53:22.511Z,19.88
2022-11-24T07:55:56.432Z,20.23
2022-11-24T07:58:23.316Z,19.73
2022-11-24T08:00:50.735Z,19.40
2022-11-24T08:03:17.550Z,19.08
2022-11-24T08:06:16.109Z,19.50
2022-11-24T08:08:33.481Z,18.85
2022-11-24T08:11:08.214Z,19.67
2022-11-24T08:13:35.963Z,20.27
2022-11-24T08:16:07.449Z,20.95
2022-11-24T08:18:35.277Z,19.90
2022-11-24T08:21:02.529Z,19.70
2022-11-24T08:23:29.915Z,20.73
2022-11-24T08:25:57.368Z,19.77
2022-11-24T08:28:24.480Z,21.52
2022-11-24T08:30:51.357Z,20.08
2022-11-24T08:33:19.082Z,21.45
2022-11-24T08:35:45.863Z,20.10
2022-11-24T08:38:12.560Z,20.85
2022-11-24T08:40:39.299Z,21.13
2022-11-24T08:43:06.292Z,20.70
2022-11-24T08:45:38.151Z,22.02
2022-11-24T08:48:08.005Z,21.92
2022-11-24T08:50:35.733Z,21.38
2022-11-24T08:53:02.434Z,22.10
2022-11-24T08:55:29.191Z,20.67
2022-11-24T08:57:59.508Z,21.38
2022-11-24T09:00:26.512Z,22.30
2022-11-24T09:02:55.251Z,22.25
2022-11-24T09:05:50.161Z,20.73
2022-11-24T09:08:08.820Z,20.73
2022-11-24T09:10:36.269Z,22.42
2022-11-24T09:13:02.995Z,21.27
2022-11-24T09:15:29.783Z,21.52
2022-11-24T09:17:57.557Z,21.15
2022-11-24T09:20:24.398Z,21.92
2022-11-24T09:22:51.056Z,21.85
2022-11-24T09:25:21.051Z,20.65
2022-11-24T09:27:47.674Z,21.63
2022-11-24T09:30:14.634Z,20.17
2022-11-24T09:32:42.597Z,20.67
2022-11-24T09:35:09.691Z,20.50
2022-11-24T09:37:36.489Z,20.67
2022-11-24T09:40:03.569Z,21.27
2022-11-24T09:42:36.147Z,20.40
2022-11-24T09:45:06.650Z,21.55
2022-11-24T09:47:51.882Z,21.05
2022-11-24T09:50:23.489Z,21.83
2022-11-24T09:53:11.033Z,21.02
2022-11-24T09:55:59.702Z,20.67
2022-11-24T09:58:51.961Z,20.50
2022-11-24T10:01:26.604Z,21.90
2022-11-24T10:03:53.831Z,21.23
2022-11-24T10:06:28.243Z,22.75
2022-11-24T10:09:07.956Z,21.95
2022-11-24T10:12:04.010Z,22.30
2022-11-24T10:14:42.945Z,21.13
2022-11-24T10:17:18.610Z,22.75
2022-11-24T10:19:56.917Z,22.70
2022-11-24T10:22:39.923Z,21.80
2022-11-24T10:25:12.768Z,22.65
2022-11-24T10:27:49.223Z,22.13
2022-11-24T10:30:45.928Z,21.88
2022-11-24T10:33:27.105Z,21.80
2022-11-24T10:36:14.501Z,21.65
2022-11-24T10:39:03.302Z,21.70
2022-11-24T10:41:42.727Z,22.50
2022-11-24T10:44:14.310Z,21.30
2022-11-24T10:46:41.340Z,23.13
2022-11-24T10:49:16.513Z,22.10
2022-11-24T10:52:14.203Z,22.55
2022-11-24T10:54:58.544Z,22.45
2022-11-24T10:57:35.110Z,21.52
2022-11-24T11:00:24.353Z,22.30
2022-11-24T11:03:11.155Z,22.10
2022-11-24T11:05:43.342Z,22.50
2022-11-24T11:08:26.617Z,23.73
2022-11-24T11:11:15.163Z,23.25
2022-11-24T11:14:03.514Z,22.80
2022-11-24T11:16:46.017Z,23.20
2022-11-24T11:19:48.348Z,22.85
2022-11-24T11:22:24.308Z,23.58
2022-11-24T11:25:09.985Z,23.05
2022-11-24T11:27:37.961Z,24.05
2022-11-24T11:35:51.120Z,23.98
2022-11-24T11:38:18.138Z,22.60
2022-11-24T11:40:49.157Z,23.08
2022-11-24T11:43:25.175Z,23.50
2022-11-24T11:46:00.672Z,23.20
2022-11-24T11:48:43.257Z,21.75
2022-11-24T11:51:25.926Z,21.45
2022-11-24T11:54:30.154Z,23.42
2022-11-24T11:57:20.606Z,22.77
2022-11-24T12:00:04.673Z,22.52
2022-11-24T12:02:53.330Z,23.73
2022-11-24T12:05:25.538Z,23.00
2022-11-24T12:09:03.320Z,23.83
2022-11-24T12:11:34.375Z,22.42
2022-11-24T12:14:19.250Z,22.65
2022-11-24T12:17:02.024Z,22.70
2022-11-24T12:20:12.732Z,22.45
2022-11-24T12:22:44.289Z,23.42
2022-11-24T12:25:20.039Z,22.63
2022-11-24T12:28:02.320Z,22.38
2022-11-24T12:30:55.060Z,22.63
2022-11-24T12:34:00.940Z,22.40
2022-11-24T12:36:33.095Z,22.17
2022-11-24T12:39:21.292Z,23.85
2022-11-24T12:42:23.279Z,22.77
2022-11-24T12:45:06.247Z,22.20
2022-11-24T12:47:51.086Z,22.42
2022-11-24T12:50:19.641Z,23.55
2022-11-24T12:53:19.067Z,22.35
2022-11-24T12:55:46.405Z,23.05
2022-11-24T12:58:42.889Z,22.00
2022-11-24T13:01:23.781Z,22.60
2022-11-24T13:04:12.318Z,23.13
2022-11-24T13:06:49.643Z,23.00
2022-11-24T13:09:16.603Z,22.55
2022-11-24T13:11:46.858Z,22.45
2022-11-24T13:14:29.764Z,22.15
2022-11-24T13:17:46.265Z,22.15
2022-11-24T13:20:20.190Z,22.80
2022-11-24T13:22:56.625Z,21.70
2022-11-24T13:25:31.447Z,21.38
2022-11-24T13:28:00.209Z,22.63
2022-11-24T13:30:35.947Z,22.83
2022-11-24T13:33:16.229Z,23.00
2022-11-24T13:36:09.763Z,22.73
2022-11-24T13:38:39.754Z,22.83
2022-11-24T13:41:28.331Z,22.67
2022-11-24T13:44:15.996Z,21.92
2022-11-24T13:47:06.164Z,22.63
2022-11-24T13:49:44.361Z,22.70
2022-11-24T13:52:36.291Z,22.40
2022-11-24T13:55:13.090Z,22.38
2022-11-24T13:57:52.004Z,22.98
2022-11-24T14:00:24.915Z,23.15
2022-11-24T14:02:54.316Z,23.65
2022-11-24T14:05:24.073Z,22.63
2022-11-24T14:07:51.932Z,23.73
2022-11-24T14:10:23.001Z,23.48
2022-11-24T14:13:16.568Z,24.17
2022-11-24T14:15:43.254Z,23.30
2022-11-24T14:18:18.565Z,23.60
2022-11-24T14:20:45.286Z,22.92
2022-11-24T14:23:12.072Z,22.75
2022-11-24T14:25:39.222Z,23.52
2022-11-24T14:28:23.603Z,23.23
2022-11-24T14:30:50.576Z,23.15
2022-11-24T14:33:20.047Z,22.88
2022-11-24T14:35:49.496Z,23.00
2022-11-24T14:38:16.188Z,22.98
2022-11-24T14:40:44.027Z,22.70
2022-11-24T14:43:26.361Z,22.38
2022-11-24T14:45:58.647Z,23.25
2022-11-24T14:48:31.159Z,21.88
2022-11-24T14:51:21.954Z,22.48
2022-11-24T14:53:51.284Z,22.63
2022-11-24T14:56:27.349Z,22.80
2022-11-24T14:58:55.433Z,22.65
2022-11-24T15:01:28.112Z,21.58
2022-11-24T15:04:13.089Z,23.48
2022-11-24T15:06:47.400Z,21.30
2022-11-24T15:09:50.879Z,24.08
2022-11-24T15:12:35.184Z,21.65
2022-11-24T15:15:05.978Z,22.52
2022-11-24T15:17:33.427Z,23.13
2022-11-24T15:20:04.221Z,22.25
2022-11-24T15:22:38.965Z,22.48
2022-11-24T15:25:25.438Z,21.98
2022-11-24T15:27:55.441Z,22.77
2022-11-24T15:30:22.592Z,22.60
2022-11-24T15:32:51.341Z,22.67
2022-11-24T15:35:18.057Z,23.48
2022-11-24T15:37:44.972Z,22.42
2022-11-24T15:40:11.958Z,21.05
2022-11-24T15:42:38.760Z,22.40
2022-11-24T15:45:10.103Z,22.48
2022-11-24T15:47:36.780Z,22.92
2022-11-24T15:50:03.948Z,22.25
2022-11-24T15:52:30.748Z,23.75
2022-11-24T15:54:58.428Z,23.67
2022-11-24T15:57:25.344Z,22.92
2022-11-24T15:59:52.812Z,21.92
2022-11-24T16:02:21.995Z,22.30
2022-11-24T16:04:49.593Z,22.98
2022-11-24T16:07:16.350Z,22.85
2022-11-24T16:09:43.417Z,22.63
2022-11-24T16:12:10.174Z,23.38
2022-11-24T16:14:40.007Z,23.33
2022-11-24T16:17:06.787Z,22.67
2022-11-24T16:19:38.693Z,21.88
2022-11-24T16:22:08.266Z,22.25
2022-11-24T16:24:37.720Z,21.08
2022-11-24T16:27:04.684Z,22.92
2022-11-24T16:29:36.901Z,21.48
2022-11-24T16:32:05.571Z,21.55
2022-11-24T16:34:32.547Z,22.80
2022-11-24T16:36:59.559Z,22.00
2022-11-24T16:39:26.264Z,21.15
2022-11-24T16:41:52.969Z,22.88
2022-11-24T16:44:19.641Z,22.00
2022-11-24T16:46:46.295Z,22.42
2022-11-24T16:49:13.210Z,22.48
2022-11-24T16:51:39.874Z,22.63
2022-11-24T16:54:06.706Z,22.00
2022-11-24T16:56:33.488Z,23.02
2022-11-24T16:59:00.270Z,21.25
2022-11-24T17:01:27.264Z,22.63
2022-11-24T17:03:53.992Z,22.58
2022-11-24T17:06:20.778Z,22.75
2022-11-24T17:08:47.634Z,22.92
2022-11-24T17:11:23.102Z,22.98
2022-11-24T17:13:50.059Z,22.80
2022-11-24T17:16:22.186Z,22.48
2022-11-24T17:18:49.455Z,24.45
2022-11-24T17:21:21.522Z,24.45
2022-11-24T17:23:48.444Z,23.17
2022-11-24T17:26:16.866Z,24.20
2022-11-24T17:28:44.219Z,23.30
2022-11-24T17:31:22.356Z,23.23
2022-11-24T17:33:50.157Z,23.50
2022-11-24T17:36:16.974Z,23.13
2022-11-24T17:38:43.719Z,23.95
2022-11-24T17:41:13.532Z,23.95
2022-11-24T17:43:40.293Z,24.38
2022-11-24T17:46:07.197Z,24.85
2022-11-24T17:48:40.290Z,23.23
2022-11-24T17:51:09.954Z,23.02
2022-11-24T17:53:37.612Z,23.23
2022-11-24T17:56:04.880Z,23.33
2022-11-24T17:58:32.717Z,24.67
2022-11-24T18:00:59.734Z,23.20
2022-11-24T18:03:31.744Z,23.45
2022-11-24T18:06:05.850Z,23.83
2022-11-24T18:08:33.674Z,23.17
2022-11-24T18:11:08.431Z,23.83
2022-11-24T18:13:55.895Z,23.08
2022-11-24T18:16:22.200Z,23.20
2022-11-24T18:18:51.009Z,24.00
2022-11-24T18:21:18.047Z,22.63
2022-11-24T18:23:45.053Z,22.50
2022-11-24T18:26:15.039Z,22.52
2022-11-24T18:28:43.594Z,23.45
2022-11-24T18:31:12.742Z,23.30
2022-11-24T18:33:40.710Z,22.35
2022-11-24T18:36:08.423Z,23.35
2022-11-24T18:38:39.061Z,23.55
2022-11-24T18:41:06.681Z,22.75
2022-11-24T18:43:35.895Z,23.05
2022-11-24T18:46:07.382Z,23.17
2022-11-24T18:48:34.938Z,24.30
2022-11-24T18:51:01.857Z,25.08
2022-11-24T18:53:29.684Z,24.10
2022-11-24T18:56:01.431Z,23.48
2022-11-24T18:58:30.209Z,23.42
2022-11-24T19:01:20.564Z,22.42
2022-11-24T19:03:53.481Z,22.92
2022-11-24T19:06:22.405Z,24.02
2022-11-24T19:08:52.023Z,22.80
2022-11-24T19:11:20.764Z,23.23
2022-11-24T19:13:48.904Z,24.40
2022-11-24T19:16:16.759Z,25.38
2022-11-24T19:18:45.552Z,25.60
2022-11-24T19:21:15.925Z,26.55
2022-11-24T19:23:42.800Z,26.42
2022-11-24T19:26:09.559Z,26.98
2022-11-24T19:28:36.270Z,26.25
2022-11-24T19:31:08.477Z,26.30
2022-11-24T19:33:35.244Z,26.02
2022-11-24T19:36:07.118Z,26.83
2022-11-24T19:38:35.336Z,24.23
2022-11-24T19:41:06.184Z,25.38
2022-11-24T19:43:33.417Z,23.75
2022-11-24T19:46:08.072Z,24.60
2022-11-24T19:48:46.123Z,24.02
2022-11-24T19:51:17.454Z,24.65
2022-11-24T19:53:44.702Z,23.50
2022-11-24T19:56:14.288Z,23.98
2022-11-24T19:58:41.333Z,23.75
2022-11-24T20:01:16.552Z,24.25
2022-11-24T20:03:44.892Z,23.50
2022-11-24T20:06:13.188Z,23.35
2022-11-24T20:08:41.866Z,25.23
2022-11-24T20:11:11.190Z,25.45
2022-11-24T20:13:39.241Z,29.25
2022-11-24T20:16:17.661Z,28.90
2022-11-24T20:18:46.279Z,27.58
2022-11-24T20:21:15.642Z,27.50
2022-11-24T20:23:42.714Z,27.00
2022-11-24T20:26:15.605Z,26.25
2022-11-24T20:28:42.962Z,26.90
2022-11-24T20:31:21.454Z,27.50
2022-11-24T20:33:48.299Z,27.88
2022-11-24T20:36:23.625Z,27.38
2022-11-24T20:38:51.223Z,27.27
2022-11-24T20:41:20.706Z,28.77
2022-11-24T20:43:47.733Z,27.88
2022-11-24T20:46:17.563Z,25.70
2022-11-24T20:48:44.939Z,24.45
2022-11-24T20:51:14.002Z,26.50
2022-11-24T20:53:41.024Z,26.23
2022-11-24T20:56:16.428Z,24.88
2022-11-24T20:58:43.508Z,24.23
2022-11-24T21:01:22.328Z,22.85
2022-11-24T21:03:56.679Z,23.25
2022-11-24T21:06:23.722Z,24.67
2022-11-24T21:08:51.091Z,23.77
2022-11-24T21:11:18.680Z,23.73
2022-11-24T21:13:46.032Z,23.50
2022-11-24T21:16:14.616Z,22.35
2022-11-24T21:18:41.443Z,23.58
2022-11-24T21:21:09.553Z,24.60
2022-11-24T21:23:36.351Z,22.48
2022-11-24T21:26:09.070Z,24.13
2022-11-24T21:28:38.629Z,23.60
2022-11-24T21:31:14.359Z,23.73
2022-11-24T21:33:42.245Z,22.33
2022-11-24T21:36:09.264Z,21.08
2022-11-24T21:38:36.204Z,22.17
2022-11-24T21:41:08.338Z,22.40
2022-11-24T21:43:35.669Z,21.65
2022-11-24T21:46:06.903Z,20.77
2022-11-24T21:48:35.565Z,18.98
2022-11-24T21:51:04.415Z,20.13
2022-11-24T21:53:33.953Z,18.58
2022-11-24T21:56:02.719Z,19.58
2022-11-24T21:58:29.940Z,19.67
2022-11-24T22:01:05.294Z,19.70
2022-11-24T22:03:32.265Z,19.73
2022-11-24T22:06:00.387Z,16.88
2022-11-24T22:08:28.245Z,17.63
2022-11-24T22:11:12.749Z,17.83
2022-11-24T22:13:40.674Z,17.55
2022-11-24T22:16:12.977Z,18.25
2022-11-24T22:18:44.249Z,18.27
2022-11-24T22:21:13.522Z,18.02
2022-11-24T22:23:40.529Z,17.33
2022-11-24T22:26:12.398Z,18.02
2022-11-24T22:28:39.626Z,18.50
2022-11-24T22:31:15.186Z,18.13
2022-11-24T22:33:42.315Z,19.23
2022-11-24T22:36:10.456Z,18.58
2022-11-24T22:38:40.745Z,19.00
2022-11-24T22:41:15.077Z,18.55
2022-11-24T22:43:43.084Z,17.73
2022-11-24T22:46:15.100Z,17.02
2022-11-24T22:48:42.539Z,16.88
2022-11-24T22:51:10.835Z,17.25
2022-11-24T22:53:38.014Z,18.35
2022-11-24T22:56:06.469Z,17.83
2022-11-24T22:58:37.078Z,16.52
2022-11-24T23:01:15.058Z,16.92
2022-11-24T23:03:42.143Z,17.83
2022-11-24T23:06:15.028Z,16.75
2022-11-24T23:08:42.366Z,17.15
2022-11-24T23:11:10.270Z,15.63
2022-11-24T23:13:40.532Z,17.13
2022-11-24T23:16:15.570Z,15.57
2022-11-24T23:18:42.939Z,16.63
2022-11-24T23:21:20.370Z,15.80
2022-11-24T23:23:48.363Z,16.08
2022-11-24T23:26:18.050Z,16.05
2022-11-24T23:28:44.733Z,15.75
2022-11-24T23:31:17.090Z,16.90
2022-11-24T23:33:43.791Z,15.73
2022-11-24T23:36:18.283Z,16.17
2022-11-24T23:38:45.329Z,15.75
2022-11-24T23:41:14.234Z,16.33
2022-11-24T23:43:42.355Z,14.40
2022-11-24T23:46:11.608Z,16.50
2022-11-24T23:48:38.913Z,16.88
2022-11-24T23:51:11.848Z,16.67
2022-11-24T23:53:38.593Z,15.93
2022-11-24T23:56:06.079Z,16.90
2022-11-24T23:58:33.537Z,16.73
